sensor_id;sensor_type;location;lat;lon;timestamp;pressure;altitude;pressure_sealevel;temperature;humidity
39487;BME280;25173;50.430;18.926;2023-01-15T00:00:49;97666.81;;;9.23;56.06
39487;BME280;25173;50.430;18.926;2023-01-15T00:03:50;97656.19;;;9.27;56.07
39487;BME280;25173;50.430;18.926;2023-01-15T00:06:51;97648.03;;;9.32;55.82
39487;BME280;25173;50.430;18.926;2023-01-15T00:09:53;97646.41;;;9.31;55.79
39487;BME280;25173;50.430;18.926;2023-01-15T00:12:54;97649.13;;;9.31;55.60
39487;BME280;25173;50.430;18.926;2023-01-15T00:16:09;97650.16;;;9.35;55.26
39487;BME280;25173;50.430;18.926;2023-01-15T00:19:10;97648.03;;;9.32;55.58
39487;BME280;25173;50.430;18.926;2023-01-15T00:22:11;97642.00;;;9.35;55.48
39487;BME280;25173;50.430;18.926;2023-01-15T00:25:12;97642.28;;;9.39;55.32
39487;BME280;25173;50.430;18.926;2023-01-15T00:28:31;97639.25;;;9.45;55.35
39487;BME280;25173;50.430;18.926;2023-01-15T00:31:33;97633.78;;;9.50;55.29
39487;BME280;25173;50.430;18.926;2023-01-15T00:34:34;97627.81;;;9.53;54.99
39487;BME280;25173;50.430;18.926;2023-01-15T00:37:35;97621.81;;;9.51;54.84
39487;BME280;25173;50.430;18.926;2023-01-15T00:40:37;97617.47;;;9.50;54.83
39487;BME280;25173;50.430;18.926;2023-01-15T00:43:37;97621.00;;;9.51;54.51
39487;BME280;25173;50.430;18.926;2023-01-15T00:46:39;97605.78;;;9.50;54.54
39487;BME280;25173;50.430;18.926;2023-01-15T00:49:43;97600.63;;;9.53;54.47
39487;BME280;25173;50.430;18.926;2023-01-15T00:52:44;97593.28;;;9.49;54.36
39487;BME280;25173;50.430;18.926;2023-01-15T00:55:45;97590.34;;;9.45;54.23
39487;BME280;25173;50.430;18.926;2023-01-15T00:58:45;97589.03;;;9.38;54.24
39487;BME280;25173;50.430;18.926;2023-01-15T01:01:47;97578.38;;;9.41;54.30
39487;BME280;25173;50.430;18.926;2023-01-15T01:04:48;97564.56;;;9.38;54.02
39487;BME280;25173;50.430;18.926;2023-01-15T01:07:49;97559.44;;;9.31;54.06
39487;BME280;25173;50.430;18.926;2023-01-15T01:10:49;97551.00;;;9.32;54.25
39487;BME280;25173;50.430;18.926;2023-01-15T01:14:00;97549.94;;;9.28;54.17
39487;BME280;25173;50.430;18.926;2023-01-15T01:17:01;97542.38;;;9.25;54.20
39487;BME280;25173;50.430;18.926;2023-01-15T01:20:03;97546.94;;;9.30;54.20
39487;BME280;25173;50.430;18.926;2023-01-15T01:23:04;97542.31;;;9.30;53.84
39487;BME280;25173;50.430;18.926;2023-01-15T01:26:04;97542.06;;;9.27;53.95
39487;BME280;25173;50.430;18.926;2023-01-15T01:29:05;97535.53;;;9.28;53.96
39487;BME280;25173;50.430;18.926;2023-01-15T01:32:06;97523.09;;;9.22;54.15
39487;BME280;25173;50.430;18.926;2023-01-15T01:35:08;97515.47;;;9.19;54.10
39487;BME280;25173;50.430;18.926;2023-01-15T01:38:09;97510.59;;;9.21;54.14
39487;BME280;25173;50.430;18.926;2023-01-15T01:41:09;97514.97;;;9.12;54.01
39487;BME280;25173;50.430;18.926;2023-01-15T01:47:34;97498.19;;;9.10;54.23
39487;BME280;25173;50.430;18.926;2023-01-15T01:50:36;97498.44;;;9.08;54.19
39487;BME280;25173;50.430;18.926;2023-01-15T01:53:38;97483.50;;;9.11;54.22
39487;BME280;25173;50.430;18.926;2023-01-15T01:56:39;97474.53;;;9.10;54.21
39487;BME280;25173;50.430;18.926;2023-01-15T01:59:40;97467.22;;;9.06;54.21
39487;BME280;25173;50.430;18.926;2023-01-15T02:02:43;97455.81;;;9.09;54.15
39487;BME280;25173;50.430;18.926;2023-01-15T02:05:49;97478.34;;;9.09;54.10
39487;BME280;25173;50.430;18.926;2023-01-15T02:08:51;97471.56;;;9.07;54.10
39487;BME280;25173;50.430;18.926;2023-01-15T02:11:57;97466.66;;;9.09;54.20
39487;BME280;25173;50.430;18.926;2023-01-15T02:21:23;97454.34;;;9.21;53.96
39487;BME280;25173;50.430;18.926;2023-01-15T02:24:36;97452.97;;;9.24;53.99
39487;BME280;25173;50.430;18.926;2023-01-15T02:27:46;97438.59;;;9.23;54.16
39487;BME280;25173;50.430;18.926;2023-01-15T02:30:50;97436.22;;;9.12;52.95
39487;BME280;25173;50.430;18.926;2023-01-15T02:34:07;97434.63;;;9.11;54.15
39487;BME280;25173;50.430;18.926;2023-01-15T02:37:13;97446.84;;;9.08;54.31
39487;BME280;25173;50.430;18.926;2023-01-15T02:40:19;97442.22;;;9.09;54.36
39487;BME280;25173;50.430;18.926;2023-01-15T02:43:22;97441.63;;;9.12;54.42
39487;BME280;25173;50.430;18.926;2023-01-15T02:46:27;97437.25;;;9.21;54.30
39487;BME280;25173;50.430;18.926;2023-01-15T02:49:30;97431.47;;;9.27;53.21
39487;BME280;25173;50.430;18.926;2023-01-15T02:52:38;97437.16;;;9.31;53.32
39487;BME280;25173;50.430;18.926;2023-01-15T02:55:43;97425.69;;;9.39;54.25
39487;BME280;25173;50.430;18.926;2023-01-15T02:58:51;97419.16;;;9.40;53.94
39487;BME280;25173;50.430;18.926;2023-01-15T03:01:59;97429.13;;;9.50;53.88
39487;BME280;25173;50.430;18.926;2023-01-15T03:05:10;97427.50;;;9.49;53.69
39487;BME280;25173;50.430;18.926;2023-01-15T03:08:13;97416.34;;;9.50;53.75
39487;BME280;25173;50.430;18.926;2023-01-15T03:11:16;97408.44;;;9.54;53.65
39487;BME280;25173;50.430;18.926;2023-01-15T03:14:48;97428.28;;;9.54;53.66
39487;BME280;25173;50.430;18.926;2023-01-15T03:17:54;97431.72;;;9.65;53.54
39487;BME280;25173;50.430;18.926;2023-01-15T03:20:59;97424.34;;;9.70;53.38
39487;BME280;25173;50.430;18.926;2023-01-15T03:24:03;97422.19;;;9.67;53.37
39487;BME280;25173;50.430;18.926;2023-01-15T03:27:05;97423.75;;;9.73;53.59
39487;BME280;25173;50.430;18.926;2023-01-15T03:30:15;97419.06;;;9.79;53.21
39487;BME280;25173;50.430;18.926;2023-01-15T03:33:17;97407.34;;;9.84;53.24
39487;BME280;25173;50.430;18.926;2023-01-15T03:36:18;97398.31;;;9.88;53.14
39487;BME280;25173;50.430;18.926;2023-01-15T03:39:21;97388.53;;;9.87;53.07
39487;BME280;25173;50.430;18.926;2023-01-15T03:42:44;97385.00;;;9.87;52.85
39487;BME280;25173;50.430;18.926;2023-01-15T03:46:14;97380.91;;;9.89;52.01
39487;BME280;25173;50.430;18.926;2023-01-15T03:49:43;97380.91;;;9.89;52.53
39487;BME280;25173;50.430;18.926;2023-01-15T03:56:34;97368.31;;;9.93;52.87
39487;BME280;25173;50.430;18.926;2023-01-15T03:59:44;97363.69;;;9.94;52.92
39487;BME280;25173;50.430;18.926;2023-01-15T04:02:49;97367.69;;;10.01;53.10
39487;BME280;25173;50.430;18.926;2023-01-15T04:05:55;97368.75;;;10.05;53.22
39487;BME280;25173;50.430;18.926;2023-01-15T04:08:57;97368.97;;;10.09;53.28
39487;BME280;25173;50.430;18.926;2023-01-15T04:12:00;97356.13;;;10.15;53.25
39487;BME280;25173;50.430;18.926;2023-01-15T04:15:05;97349.03;;;10.19;52.63
39487;BME280;25173;50.430;18.926;2023-01-15T04:18:05;97336.50;;;10.18;53.47
39487;BME280;25173;50.430;18.926;2023-01-15T04:21:06;97331.78;;;10.28;53.65
39487;BME280;25173;50.430;18.926;2023-01-15T04:24:08;97340.13;;;10.32;53.81
39487;BME280;25173;50.430;18.926;2023-01-15T04:27:09;97344.19;;;10.34;54.03
39487;BME280;25173;50.430;18.926;2023-01-15T04:30:10;97339.56;;;10.35;54.06
39487;BME280;25173;50.430;18.926;2023-01-15T04:33:11;97334.34;;;10.38;54.15
39487;BME280;25173;50.430;18.926;2023-01-15T04:36:11;97345.66;;;10.45;54.40
39487;BME280;25173;50.430;18.926;2023-01-15T04:39:13;97345.91;;;10.49;54.85
39487;BME280;25173;50.430;18.926;2023-01-15T04:42:14;97336.41;;;10.46;55.02
39487;BME280;25173;50.430;18.926;2023-01-15T04:45:33;97333.09;;;10.49;55.24
39487;BME280;25173;50.430;18.926;2023-01-15T04:48:34;97328.84;;;10.43;55.52
39487;BME280;25173;50.430;18.926;2023-01-15T04:51:34;97329.41;;;10.40;55.83
39487;BME280;25173;50.430;18.926;2023-01-15T04:54:36;97319.19;;;10.32;55.88
39487;BME280;25173;50.430;18.926;2023-01-15T04:57:36;97322.34;;;10.21;56.21
39487;BME280;25173;50.430;18.926;2023-01-15T05:00:39;97312.28;;;10.21;56.25
39487;BME280;25173;50.430;18.926;2023-01-15T05:03:40;97308.75;;;10.16;56.20
39487;BME280;25173;50.430;18.926;2023-01-15T05:06:41;97313.69;;;10.13;56.16
39487;BME280;25173;50.430;18.926;2023-01-15T05:09:42;97307.72;;;10.11;56.08
39487;BME280;25173;50.430;18.926;2023-01-15T05:12:42;97302.53;;;10.15;55.67
39487;BME280;25173;50.430;18.926;2023-01-15T05:15:43;97291.66;;;10.15;55.71
39487;BME280;25173;50.430;18.926;2023-01-15T05:18:46;97289.44;;;10.17;55.55
39487;BME280;25173;50.430;18.926;2023-01-15T05:21:47;97278.53;;;10.22;55.52
39487;BME280;25173;50.430;18.926;2023-01-15T05:24:47;97285.06;;;10.21;55.31
39487;BME280;25173;50.430;18.926;2023-01-15T05:27:48;97299.16;;;10.23;55.13
39487;BME280;25173;50.430;18.926;2023-01-15T05:30:48;97290.72;;;10.25;54.98
39487;BME280;25173;50.430;18.926;2023-01-15T05:33:50;97284.41;;;10.29;54.89
39487;BME280;25173;50.430;18.926;2023-01-15T05:36:51;97280.28;;;10.32;54.79
39487;BME280;25173;50.430;18.926;2023-01-15T05:39:52;97295.50;;;10.33;54.65
39487;BME280;25173;50.430;18.926;2023-01-15T05:42:52;97290.34;;;10.31;54.70
39487;BME280;25173;50.430;18.926;2023-01-15T05:45:53;97276.44;;;10.33;54.51
39487;BME280;25173;50.430;18.926;2023-01-15T05:48:54;97266.28;;;10.38;54.49
39487;BME280;25173;50.430;18.926;2023-01-15T05:51:59;97271.97;;;10.42;54.47
39487;BME280;25173;50.430;18.926;2023-01-15T05:55:00;97271.44;;;10.40;54.12
39487;BME280;25173;50.430;18.926;2023-01-15T05:58:01;97262.56;;;10.34;54.36
39487;BME280;25173;50.430;18.926;2023-01-15T06:01:08;97264.19;;;10.35;54.10
39487;BME280;25173;50.430;18.926;2023-01-15T06:04:11;97259.84;;;10.34;54.18
39487;BME280;25173;50.430;18.926;2023-01-15T06:07:15;97267.56;;;10.27;54.25
39487;BME280;25173;50.430;18.926;2023-01-15T06:10:17;97269.66;;;10.30;54.40
39487;BME280;25173;50.430;18.926;2023-01-15T06:13:18;97271.53;;;10.35;54.33
39487;BME280;25173;50.430;18.926;2023-01-15T06:16:18;97270.72;;;10.34;54.19
39487;BME280;25173;50.430;18.926;2023-01-15T06:19:19;97288.44;;;10.32;54.06
39487;BME280;25173;50.430;18.926;2023-01-15T06:22:20;97287.13;;;10.29;54.17
39487;BME280;25173;50.430;18.926;2023-01-15T06:25:20;97274.38;;;10.25;54.13
39487;BME280;25173;50.430;18.926;2023-01-15T06:28:21;97289.91;;;10.24;54.00
39487;BME280;25173;50.430;18.926;2023-01-15T06:31:23;97290.78;;;10.20;54.02
39487;BME280;25173;50.430;18.926;2023-01-15T06:34:26;97286.78;;;10.12;54.30
39487;BME280;25173;50.430;18.926;2023-01-15T06:37:26;97281.91;;;10.09;54.21
39487;BME280;25173;50.430;18.926;2023-01-15T06:40:27;97285.97;;;10.11;54.19
39487;BME280;25173;50.430;18.926;2023-01-15T06:43:28;97277.56;;;10.08;54.33
39487;BME280;25173;50.430;18.926;2023-01-15T06:46:49;97294.50;;;10.05;54.21
39487;BME280;25173;50.430;18.926;2023-01-15T06:50:09;97286.63;;;10.03;54.09
39487;BME280;25173;50.430;18.926;2023-01-15T06:53:09;97284.25;;;9.97;54.12
39487;BME280;25173;50.430;18.926;2023-01-15T06:56:10;97285.16;;;9.92;54.39
39487;BME280;25173;50.430;18.926;2023-01-15T06:59:11;97289.97;;;9.95;54.40
39487;BME280;25173;50.430;18.926;2023-01-15T07:02:11;97286.16;;;9.96;54.51
39487;BME280;25173;50.430;18.926;2023-01-15T07:05:12;97284.78;;;9.99;54.44
39487;BME280;25173;50.430;18.926;2023-01-15T07:08:13;97277.78;;;9.93;54.30
39487;BME280;25173;50.430;18.926;2023-01-15T07:11:13;97286.53;;;9.90;54.45
39487;BME280;25173;50.430;18.926;2023-01-15T07:14:25;97276.75;;;9.89;54.32
39487;BME280;25173;50.430;18.926;2023-01-15T07:17:27;97287.63;;;9.89;54.53
39487;BME280;25173;50.430;18.926;2023-01-15T07:20:28;97292.97;;;9.94;54.33
39487;BME280;25173;50.430;18.926;2023-01-15T07:23:28;97291.31;;;9.98;54.28
39487;BME280;25173;50.430;18.926;2023-01-15T07:26:29;97292.13;;;9.98;54.40
39487;BME280;25173;50.430;18.926;2023-01-15T07:29:30;97292.94;;;9.99;54.24
39487;BME280;25173;50.430;18.926;2023-01-15T07:32:30;97290.16;;;10.04;54.29
39487;BME280;25173;50.430;18.926;2023-01-15T07:35:31;97287.34;;;10.09;54.16
39487;BME280;25173;50.430;18.926;2023-01-15T07:38:32;97279.72;;;10.11;54.08
39487;BME280;25173;50.430;18.926;2023-01-15T07:41:32;97286.78;;;10.12;53.96
39487;BME280;25173;50.430;18.926;2023-01-15T07:44:51;97294.38;;;10.15;54.15
39487;BME280;25173;50.430;18.926;2023-01-15T07:48:10;97286.16;;;10.20;54.03
39487;BME280;25173;50.430;18.926;2023-01-15T07:51:29;97283.06;;;10.27;53.92
39487;BME280;25173;50.430;18.926;2023-01-15T07:54:30;97280.56;;;10.30;54.02
39487;BME280;25173;50.430;18.926;2023-01-15T07:57:31;97279.91;;;10.38;53.84
39487;BME280;25173;50.430;18.926;2023-01-15T08:00:31;97282.56;;;10.43;53.87
39487;BME280;25173;50.430;18.926;2023-01-15T08:03:32;97277.28;;;10.52;53.94
39487;BME280;25173;50.430;18.926;2023-01-15T08:06:32;97281.81;;;10.57;53.84
39487;BME280;25173;50.430;18.926;2023-01-15T08:09:33;97280.63;;;10.63;53.68
39487;BME280;25173;50.430;18.926;2023-01-15T08:12:34;97288.22;;;10.66;53.94
39487;BME280;25173;50.430;18.926;2023-01-15T08:15:53;97286.00;;;10.68;53.41
39487;BME280;25173;50.430;18.926;2023-01-15T08:18:53;97269.97;;;10.66;53.61
39487;BME280;25173;50.430;18.926;2023-01-15T08:21:55;97277.34;;;10.66;53.66
39487;BME280;25173;50.430;18.926;2023-01-15T08:24:56;97278.94;;;10.67;53.61
39487;BME280;25173;50.430;18.926;2023-01-15T08:28:00;97274.59;;;10.66;53.27
39487;BME280;25173;50.430;18.926;2023-01-15T08:31:01;97266.50;;;10.61;53.43
39487;BME280;25173;50.430;18.926;2023-01-15T08:34:02;97258.31;;;10.61;53.44
39487;BME280;25173;50.430;18.926;2023-01-15T08:37:03;97248.25;;;10.61;53.34
39487;BME280;25173;50.430;18.926;2023-01-15T08:40:04;97245.81;;;10.60;53.28
39487;BME280;25173;50.430;18.926;2023-01-15T08:43:04;97243.09;;;10.60;53.23
39487;BME280;25173;50.430;18.926;2023-01-15T08:46:05;97231.91;;;10.61;53.09
39487;BME280;25173;50.430;18.926;2023-01-15T08:49:10;97229.41;;;10.65;53.14
39487;BME280;25173;50.430;18.926;2023-01-15T08:52:10;97235.69;;;10.65;52.72
39487;BME280;25173;50.430;18.926;2023-01-15T08:55:11;97238.69;;;10.64;52.79
39487;BME280;25173;50.430;18.926;2023-01-15T08:58:12;97236.25;;;10.62;52.90
39487;BME280;25173;50.430;18.926;2023-01-15T09:01:13;97250.00;;;10.71;52.72
39487;BME280;25173;50.430;18.926;2023-01-15T09:04:17;97251.63;;;10.72;52.36
39487;BME280;25173;50.430;18.926;2023-01-15T09:07:18;97250.00;;;10.71;52.52
39487;BME280;25173;50.430;18.926;2023-01-15T09:10:18;97256.78;;;10.73;52.63
39487;BME280;25173;50.430;18.926;2023-01-15T09:13:19;97249.03;;;10.80;52.47
39487;BME280;25173;50.430;18.926;2023-01-15T09:16:19;97250.06;;;10.84;52.41
39487;BME280;25173;50.430;18.926;2023-01-15T09:19:20;97251.09;;;10.88;52.14
39487;BME280;25173;50.430;18.926;2023-01-15T09:22:21;97250.75;;;10.90;52.10
39487;BME280;25173;50.430;18.926;2023-01-15T09:25:22;97234.94;;;10.92;52.21
39487;BME280;25173;50.430;18.926;2023-01-15T09:28:23;97226.47;;;10.94;52.12
39487;BME280;25173;50.430;18.926;2023-01-15T09:31:24;97230.94;;;11.03;52.35
39487;BME280;25173;50.430;18.926;2023-01-15T09:34:25;97216.72;;;11.06;52.43
39487;BME280;25173;50.430;18.926;2023-01-15T09:37:26;97221.34;;;11.06;52.36
39487;BME280;25173;50.430;18.926;2023-01-15T09:43:53;97204.41;;;11.09;52.79
39487;BME280;25173;50.430;18.926;2023-01-15T09:47:08;97198.25;;;11.17;52.79
39487;BME280;25173;50.430;18.926;2023-01-15T09:50:33;97189.41;;;11.25;52.80
39487;BME280;25173;50.430;18.926;2023-01-15T09:56:43;97192.41;;;11.23;52.97
39487;BME280;25173;50.430;18.926;2023-01-15T09:59:47;97187.97;;;11.27;53.01
39487;BME280;25173;50.430;18.926;2023-01-15T10:02:53;97183.03;;;11.29;53.06
39487;BME280;25173;50.430;18.926;2023-01-15T10:09:21;97174.56;;;11.31;53.06
39487;BME280;25173;50.430;18.926;2023-01-15T10:12:27;97174.03;;;11.29;53.41
39487;BME280;25173;50.430;18.926;2023-01-15T10:15:39;97167.19;;;11.32;53.41
39487;BME280;25173;50.430;18.926;2023-01-15T10:18:41;97162.84;;;11.31;53.50
39487;BME280;25173;50.430;18.926;2023-01-15T10:22:13;97143.34;;;11.23;53.61
39487;BME280;25173;50.430;18.926;2023-01-15T10:25:15;97139.72;;;11.14;53.73
39487;BME280;25173;50.430;18.926;2023-01-15T10:28:22;97147.59;;;11.02;53.83
39487;BME280;25173;50.430;18.926;2023-01-15T10:38:13;97135.25;;;10.77;55.02
39487;BME280;25173;50.430;18.926;2023-01-15T10:45:27;97129.22;;;10.80;55.34
39487;BME280;25173;50.430;18.926;2023-01-15T10:48:37;97139.38;;;10.75;55.30
39487;BME280;25173;50.430;18.926;2023-01-15T10:51:45;97125.75;;;10.75;55.45
39487;BME280;25173;50.430;18.926;2023-01-15T10:54:53;97115.59;;;10.67;55.46
39487;BME280;25173;50.430;18.926;2023-01-15T11:01:17;97106.75;;;10.42;55.97
39487;BME280;25173;50.430;18.926;2023-01-15T11:04:19;97105.13;;;10.41;55.99
39487;BME280;25173;50.430;18.926;2023-01-15T11:07:33;97095.63;;;10.39;56.09
39487;BME280;25173;50.430;18.926;2023-01-15T11:10:37;97084.47;;;10.40;56.16
39487;BME280;25173;50.430;18.926;2023-01-15T11:13:38;97083.25;;;10.46;56.25
39487;BME280;25173;50.430;18.926;2023-01-15T11:16:57;97061.78;;;10.45;56.10
39487;BME280;25173;50.430;18.926;2023-01-15T11:20:41;97048.38;;;10.35;56.09
39487;BME280;25173;50.430;18.926;2023-01-15T11:23:43;97058.53;;;10.29;56.24
39487;BME280;25173;50.430;18.926;2023-01-15T11:26:47;97060.13;;;10.30;56.31
39487;BME280;25173;50.430;18.926;2023-01-15T11:29:53;97056.41;;;10.26;56.24
39487;BME280;25173;50.430;18.926;2023-01-15T11:32:56;97058.13;;;10.22;56.27
39487;BME280;25173;50.430;18.926;2023-01-15T11:35:59;97044.81;;;10.21;56.23
39487;BME280;25173;50.430;18.926;2023-01-15T11:39:00;97045.66;;;10.16;56.26
39487;BME280;25173;50.430;18.926;2023-01-15T11:42:05;97051.06;;;10.21;56.29
39487;BME280;25173;50.430;18.926;2023-01-15T11:45:33;97059.44;;;10.25;55.83
39487;BME280;25173;50.430;18.926;2023-01-15T11:48:51;97049.88;;;10.27;55.87
39487;BME280;25173;50.430;18.926;2023-01-15T11:52:15;97040.09;;;10.26;55.72
39487;BME280;25173;50.430;18.926;2023-01-15T11:55:18;97046.47;;;10.35;55.64
39487;BME280;25173;50.430;18.926;2023-01-15T11:58:21;97037.19;;;10.36;55.28
39487;BME280;25173;50.430;18.926;2023-01-15T12:01:30;97025.69;;;10.39;55.42
39487;BME280;25173;50.430;18.926;2023-01-15T12:04:53;97027.81;;;10.42;55.62
39487;BME280;25173;50.430;18.926;2023-01-15T12:07:57;97009.28;;;10.44;55.29
39487;BME280;25173;50.430;18.926;2023-01-15T12:18:00;97018.03;;;10.41;54.91
39487;BME280;25173;50.430;18.926;2023-01-15T12:21:14;97002.41;;;10.47;55.23
39487;BME280;25173;50.430;18.926;2023-01-15T12:27:53;96994.34;;;10.56;54.96
39487;BME280;25173;50.430;18.926;2023-01-15T12:31:05;96993.13;;;10.62;54.52
39487;BME280;25173;50.430;18.926;2023-01-15T12:34:28;97000.72;;;10.65;54.79
39487;BME280;25173;50.430;18.926;2023-01-15T12:37:57;96996.06;;;10.65;54.47
39487;BME280;25173;50.430;18.926;2023-01-15T12:41:16;96981.94;;;10.63;54.30
39487;BME280;25173;50.430;18.926;2023-01-15T12:44:39;96989.81;;;10.65;54.49
39487;BME280;25173;50.430;18.926;2023-01-15T12:51:33;96996.88;;;10.66;54.19
39487;BME280;25173;50.430;18.926;2023-01-15T12:54:42;96987.28;;;10.68;54.23
39487;BME280;25173;50.430;18.926;2023-01-15T12:57:55;96971.28;;;10.67;54.28
39487;BME280;25173;50.430;18.926;2023-01-15T13:01:03;96974.47;;;10.69;54.26
39487;BME280;25173;50.430;18.926;2023-01-15T13:04:17;96974.00;;;10.67;54.22
39487;BME280;25173;50.430;18.926;2023-01-15T13:10:30;96988.59;;;10.71;54.42
39487;BME280;25173;50.430;18.926;2023-01-15T13:13:41;96987.69;;;10.75;54.26
39487;BME280;25173;50.430;18.926;2023-01-15T13:27:58;97007.16;;;10.96;54.84
